Time;durP1;ratioP1;P1;durP2;ratioP2;P2;SDS_P1;SDS_P2;PMS_P1;PMS_P2;Temp;Humidity;BMP_temperature;BMP_pressure;BME280_temperature;BME280_humidity;BME280_pressure;Samples;Min_cycle;Max_cycle;Signal;HPM_P1;HPM_P2
2022/08/21 00:01:43;;;;;;;0.63;0.63;;;;;;;;;;5119265;28;20635;-62
2022/08/21 00:04:12;;;;;;;0.63;0.50;;;;;;;;;;5119553;28;20270;-61
2022/08/21 00:06:47;;;;;;;1.07;0.97;;;;;;;;;;5119543;28;20218;-62
2022/08/21 00:09:15;;;;;;;0.87;0.80;;;;;;;;;;5119443;27;20200;-62
2022/08/21 00:11:44;;;;;;;1.40;1.00;;;;;;;;;;5119308;28;20276;-62
2022/08/21 00:14:12;;;;;;;2.70;1.13;;;;;;;;;;5103727;28;20225;-62
2022/08/21 00:16:41;;;;;;;1.60;1.00;;;;;;;;;;5099007;28;20265;-62
2022/08/21 00:19:09;;;;;;;0.63;0.50;;;;;;;;;;5098518;28;20240;-62
2022/08/21 00:21:37;;;;;;;2.50;1.00;;;;;;;;;;5098908;28;20208;-62
2022/08/21 00:24:05;;;;;;;0.73;0.53;;;;;;;;;;5110898;28;20232;-62
2022/08/21 00:26:34;;;;;;;2.13;0.87;;;;;;;;;;5119084;28;20206;-62
2022/08/21 00:29:04;;;;;;;2.67;0.90;;;;;;;;;;5118962;28;20232;-62
2022/08/21 00:31:32;;;;;;;1.67;0.80;;;;;;;;;;5118452;28;20212;-62
2022/08/21 00:34:02;;;;;;;1.10;0.80;;;;;;;;;;5114158;28;20629;-63
2022/08/21 00:36:30;;;;;;;1.47;0.70;;;;;;;;;;5118938;28;20278;-62
2022/08/21 00:38:58;;;;;;;2.37;0.73;;;;;;;;;;5118651;28;20291;-62
2022/08/21 00:41:26;;;;;;;3.80;1.90;;;;;;;;;;5118924;28;20202;-62
2022/08/21 00:44:06;;;;;;;1.00;0.70;;;;;;;;;;5118551;27;20270;-62
2022/08/21 00:46:34;;;;;;;1.50;0.67;;;;;;;;;;5118511;28;20672;-62
2022/08/21 00:49:03;;;;;;;1.30;1.20;;;;;;;;;;5118622;28;20242;-62
2022/08/21 00:51:35;;;;;;;0.90;0.80;;;;;;;;;;5118332;28;20648;-62
2022/08/21 00:54:05;;;;;;;0.50;0.50;;;;;;;;;;5118665;28;20230;-62
2022/08/21 00:56:45;;;;;;;3.50;0.90;;;;;;;;;;5118245;28;20223;-62
2022/08/21 00:59:15;;;;;;;1.70;0.80;;;;;;;;;;5118301;28;20236;-62
2022/08/21 01:01:43;;;;;;;1.73;0.93;;;;;;;;;;5118531;28;20245;-62
2022/08/21 01:04:13;;;;;;;1.80;0.90;;;;;;;;;;5118276;28;20258;-62
2022/08/21 01:06:41;;;;;;;3.43;1.10;;;;;;;;;;5118343;28;20241;-62
2022/08/21 01:09:09;;;;;;;0.87;0.60;;;;;;;;;;5118458;28;20239;-62
2022/08/21 01:11:37;;;;;;;1.10;0.90;;;;;;;;;;5118231;28;20254;-62
2022/08/21 01:14:05;;;;;;;1.37;0.87;;;;;;;;;;5103702;28;20263;-62
2022/08/21 01:16:34;;;;;;;1.43;0.87;;;;;;;;;;5098186;28;20285;-62
2022/08/21 01:19:02;;;;;;;1.60;0.60;;;;;;;;;;5098014;28;20243;-62
2022/08/21 01:21:31;;;;;;;3.93;0.93;;;;;;;;;;5097799;28;20240;-62
2022/08/21 01:24:00;;;;;;;4.73;1.23;;;;;;;;;;5109297;28;20258;-62
2022/08/21 01:26:29;;;;;;;3.60;1.27;;;;;;;;;;5118028;28;20203;-62
2022/08/21 01:29:03;;;;;;;0.73;0.63;;;;;;;;;;5117806;28;20731;-65
2022/08/21 01:31:32;;;;;;;1.23;0.70;;;;;;;;;;5118388;28;20204;-62
2022/08/21 01:34:00;;;;;;;2.93;1.77;;;;;;;;;;5113810;28;20226;-62
2022/08/21 01:36:28;;;;;;;3.03;2.07;;;;;;;;;;5118402;28;20252;-62
2022/08/21 01:38:58;;;;;;;3.33;0.80;;;;;;;;;;5118165;28;20208;-62
2022/08/21 01:41:26;;;;;;;1.00;0.53;;;;;;;;;;5118130;28;20207;-62
2022/08/21 01:43:54;;;;;;;0.60;0.60;;;;;;;;;;5119756;28;20221;-62
2022/08/21 01:46:22;;;;;;;2.73;0.90;;;;;;;;;;5122111;28;20575;-62
2022/08/21 01:48:50;;;;;;;1.57;1.07;;;;;;;;;;5122024;28;20204;-62
2022/08/21 01:51:18;;;;;;;1.80;0.73;;;;;;;;;;5121744;28;20242;-62
2022/08/21 01:53:46;;;;;;;1.30;0.80;;;;;;;;;;5122027;28;20226;-62
2022/08/21 01:56:16;;;;;;;3.30;0.70;;;;;;;;;;5122079;28;20244;-62
2022/08/21 01:58:45;;;;;;;1.07;0.87;;;;;;;;;;5121614;28;20309;-62
2022/08/21 02:01:14;;;;;;;1.53;0.83;;;;;;;;;;5122010;28;20303;-62
2022/08/21 02:03:42;;;;;;;1.87;1.00;;;;;;;;;;5122080;28;20229;-62
2022/08/21 02:06:14;;;;;;;1.13;0.70;;;;;;;;;;5121653;28;20234;-62
2022/08/21 02:08:42;;;;;;;1.47;0.70;;;;;;;;;;5121647;28;20207;-62
2022/08/21 02:11:10;;;;;;;0.97;0.70;;;;;;;;;;5121637;28;20211;-62
2022/08/21 02:13:39;;;;;;;0.70;0.70;;;;;;;;;;5110526;28;20251;-62
2022/08/21 02:16:07;;;;;;;3.10;0.83;;;;;;;;;;5101371;28;20273;-62
2022/08/21 02:18:36;;;;;;;2.00;1.20;;;;;;;;;;5101214;28;20273;-62
2022/08/21 02:21:04;;;;;;;4.10;0.80;;;;;;;;;;5101181;28;20264;-62
2022/08/21 02:23:32;;;;;;;1.73;0.80;;;;;;;;;;5108330;28;20257;-62
2022/08/21 02:26:01;;;;;;;1.43;1.23;;;;;;;;;;5121351;28;20205;-62
2022/08/21 02:28:29;;;;;;;4.17;1.40;;;;;;;;;;5121371;28;20226;-62
2022/08/21 02:30:59;;;;;;;0.93;0.90;;;;;;;;;;5121165;28;20598;-62
2022/08/21 02:33:27;;;;;;;0.80;0.80;;;;;;;;;;5117116;28;20223;-62
2022/08/21 02:35:56;;;;;;;3.13;0.73;;;;;;;;;;5121101;28;20240;-62
2022/08/21 02:38:25;;;;;;;4.20;0.90;;;;;;;;;;5121193;28;20266;-62
2022/08/21 02:40:57;;;;;;;2.20;0.87;;;;;;;;;;5120903;28;20217;-62
2022/08/21 02:43:26;;;;;;;1.80;1.00;;;;;;;;;;5120883;27;20225;-62
2022/08/21 02:45:55;;;;;;;2.40;1.47;;;;;;;;;;5120922;28;20213;-62
2022/08/21 02:48:25;;;;;;;1.03;0.80;;;;;;;;;;5121030;28;20229;-62
2022/08/21 02:50:54;;;;;;;2.47;0.97;;;;;;;;;;5120710;27;20231;-62
2022/08/21 02:53:22;;;;;;;1.00;0.90;;;;;;;;;;5120868;28;20251;-62
2022/08/21 02:55:52;;;;;;;1.97;1.00;;;;;;;;;;5119830;28;20233;-62
2022/08/21 02:58:22;;;;;;;2.30;1.00;;;;;;;;;;5120243;28;20266;-61
2022/08/21 03:00:50;;;;;;;0.83;0.80;;;;;;;;;;5120894;28;20233;-62
2022/08/21 03:03:20;;;;;;;1.57;0.80;;;;;;;;;;5120555;28;20685;-62
2022/08/21 03:05:50;;;;;;;1.43;1.00;;;;;;;;;;5120690;28;20210;-62
2022/08/21 03:08:18;;;;;;;1.70;0.90;;;;;;;;;;5120711;28;20232;-62
2022/08/21 03:10:47;;;;;;;1.40;0.77;;;;;;;;;;5120551;28;20215;-62
2022/08/21 03:13:15;;;;;;;0.93;0.83;;;;;;;;;;5111493;28;20250;-61
2022/08/21 03:15:43;;;;;;;3.20;0.70;;;;;;;;;;5099839;28;20210;-62
2022/08/21 03:18:12;;;;;;;2.03;1.00;;;;;;;;;;5100033;28;20280;-62
2022/08/21 03:20:41;;;;;;;2.57;0.77;;;;;;;;;;5099953;28;20233;-62
2022/08/21 03:23:10;;;;;;;1.37;0.73;;;;;;;;;;5103902;28;20676;-62
2022/08/21 03:25:43;;;;;;;0.90;0.90;;;;;;;;;;5120194;28;20208;-62
2022/08/21 03:28:13;;;;;;;1.17;0.50;;;;;;;;;;5120121;28;20210;-62
2022/08/21 03:30:41;;;;;;;1.53;0.77;;;;;;;;;;5120251;28;20230;-62
2022/08/21 03:33:09;;;;;;;1.27;0.97;;;;;;;;;;5118421;27;20253;-62
2022/08/21 03:35:42;;;;;;;2.07;1.30;;;;;;;;;;5119066;28;20620;-62
2022/08/21 03:38:12;;;;;;;3.93;1.13;;;;;;;;;;5119872;28;20693;-62
2022/08/21 03:40:40;;;;;;;1.20;1.10;;;;;;;;;;5120086;28;20201;-62
2022/08/21 03:43:09;;;;;;;3.07;1.00;;;;;;;;;;5119699;28;20263;-62
2022/08/21 03:45:38;;;;;;;1.53;0.73;;;;;;;;;;5120047;28;20209;-62
2022/08/21 03:48:06;;;;;;;3.83;1.07;;;;;;;;;;5119925;28;20200;-62
2022/08/21 03:50:35;;;;;;;1.33;0.80;;;;;;;;;;5119704;28;20228;-62
2022/08/21 03:53:08;;;;;;;1.10;0.80;;;;;;;;;;5119481;28;20229;-63
2022/08/21 03:55:46;;;;;;;2.80;1.00;;;;;;;;;;5119746;28;20211;-62
2022/08/21 03:58:14;;;;;;;1.27;0.80;;;;;;;;;;5119195;28;20225;-62
2022/08/21 04:00:44;;;;;;;2.27;0.90;;;;;;;;;;5119461;28;20235;-62
2022/08/21 04:03:12;;;;;;;0.77;0.70;;;;;;;;;;5119258;28;20224;-62
2022/08/21 04:05:40;;;;;;;0.93;0.83;;;;;;;;;;5119625;28;20227;-62
2022/08/21 04:08:08;;;;;;;2.63;1.10;;;;;;;;;;5119094;28;20672;-62
2022/08/21 04:10:37;;;;;;;2.00;0.73;;;;;;;;;;5119488;28;20236;-62
2022/08/21 04:13:07;;;;;;;2.37;0.90;;;;;;;;;;5112933;28;20205;-62
2022/08/21 04:15:36;;;;;;;3.70;0.80;;;;;;;;;;5099118;28;20248;-61
2022/08/21 04:18:04;;;;;;;2.63;0.90;;;;;;;;;;5098905;28;20316;-60
2022/08/21 04:20:32;;;;;;;1.37;0.73;;;;;;;;;;5098693;28;20697;-61
2022/08/21 04:23:00;;;;;;;1.37;0.90;;;;;;;;;;5101600;28;20255;-60
2022/08/21 04:25:28;;;;;;;2.30;0.93;;;;;;;;;;5118824;28;20208;-61
2022/08/21 04:27:57;;;;;;;2.60;0.73;;;;;;;;;;5118674;28;20207;-60
2022/08/21 04:30:27;;;;;;;1.07;0.93;;;;;;;;;;5118822;28;20213;-60
2022/08/21 04:32:56;;;;;;;3.90;0.90;;;;;;;;;;5118778;28;20205;-60
2022/08/21 04:35:25;;;;;;;4.97;0.70;;;;;;;;;;5115061;28;20251;-60
2022/08/21 04:37:53;;;;;;;0.73;0.70;;;;;;;;;;5118732;28;20575;-60
2022/08/21 04:40:22;;;;;;;1.47;0.80;;;;;;;;;;5118781;28;20209;-60
2022/08/21 04:42:51;;;;;;;2.13;0.90;;;;;;;;;;5118570;28;20208;-60
2022/08/21 04:45:21;;;;;;;1.73;0.90;;;;;;;;;;5118547;28;20211;-59
2022/08/21 04:47:51;;;;;;;1.43;0.93;;;;;;;;;;5118623;28;20260;-60
2022/08/21 04:50:20;;;;;;;1.37;0.70;;;;;;;;;;5118530;28;20235;-60
2022/08/21 04:52:48;;;;;;;1.20;0.83;;;;;;;;;;5111937;28;20252;-60
2022/08/21 04:55:17;;;;;;;1.20;1.10;;;;;;;;;;5108491;28;20228;-60
2022/08/21 04:57:45;;;;;;;1.83;0.90;;;;;;;;;;5107770;28;20224;-60
2022/08/21 05:00:18;;;;;;;2.33;0.70;;;;;;;;;;5105261;28;20217;-60
2022/08/21 05:02:47;;;;;;;2.37;0.70;;;;;;;;;;5106560;28;20195;-60
2022/08/21 05:05:17;;;;;;;2.03;0.80;;;;;;;;;;5118256;27;20237;-62
2022/08/21 05:07:45;;;;;;;1.03;0.90;;;;;;;;;;5124926;27;20224;-61
2022/08/21 05:10:13;;;;;;;2.20;0.93;;;;;;;;;;5114891;27;20229;-62
2022/08/21 05:12:42;;;;;;;2.30;0.80;;;;;;;;;;5109582;28;20264;-61
2022/08/21 05:15:11;;;;;;;3.13;1.00;;;;;;;;;;5118073;28;20258;-62
2022/08/21 05:17:40;;;;;;;1.77;1.10;;;;;;;;;;5117559;28;20204;-62
2022/08/21 05:20:09;;;;;;;1.67;1.00;;;;;;;;;;5124799;28;20256;-61
2022/08/21 05:22:39;;;;;;;2.33;0.90;;;;;;;;;;5122608;28;20198;-61
2022/08/21 05:25:08;;;;;;;2.13;1.10;;;;;;;;;;5126761;28;20217;-62
2022/08/21 05:27:37;;;;;;;2.60;0.90;;;;;;;;;;5124691;28;20203;-61
2022/08/21 05:30:07;;;;;;;2.30;0.87;;;;;;;;;;5125431;28;20265;-61
2022/08/21 05:32:35;;;;;;;1.87;0.90;;;;;;;;;;5125135;28;20199;-61
2022/08/21 05:35:03;;;;;;;1.43;0.70;;;;;;;;;;5123194;27;20251;-62
2022/08/21 05:37:31;;;;;;;2.87;0.90;;;;;;;;;;5125182;28;20197;-62
2022/08/21 05:40:01;;;;;;;2.20;0.93;;;;;;;;;;5124641;27;20275;-62
2022/08/21 05:42:48;;;;;;;1.60;1.17;;;;;;;;;;5126679;28;20193;-61
2022/08/21 05:45:22;;;;;;;4.00;0.90;;;;;;;;;;5115034;28;20196;-61
2022/08/21 05:48:09;;;;;;;1.60;0.90;;;;;;;;;;5107081;28;20212;-61
2022/08/21 05:50:37;;;;;;;2.30;0.70;;;;;;;;;;5107729;28;20234;-61
2022/08/21 05:53:05;;;;;;;1.27;1.00;;;;;;;;;;5108138;28;20193;-61
2022/08/21 05:55:36;;;;;;;3.73;0.90;;;;;;;;;;5119336;28;20268;-62
2022/08/21 05:58:11;;;;;;;1.33;0.90;;;;;;;;;;5120638;28;20241;-61
2022/08/21 06:00:40;;;;;;;3.30;0.67;;;;;;;;;;5124751;28;20225;-61
2022/08/21 06:03:11;;;;;;;1.43;0.93;;;;;;;;;;5115951;28;20781;-61
2022/08/21 06:05:39;;;;;;;1.10;1.00;;;;;;;;;;5128065;27;20197;-61
2022/08/21 06:08:08;;;;;;;1.67;1.20;;;;;;;;;;5121921;28;20208;-61
2022/08/21 06:10:37;;;;;;;3.43;0.93;;;;;;;;;;5117462;28;20239;-61
2022/08/21 06:13:05;;;;;;;3.80;1.63;;;;;;;;;;5112171;28;20202;-62
2022/08/21 06:15:33;;;;;;;2.03;1.10;;;;;;;;;;5097683;28;20237;-61
2022/08/21 06:18:01;;;;;;;2.47;0.90;;;;;;;;;;5097515;28;20236;-61
2022/08/21 06:20:29;;;;;;;4.17;1.13;;;;;;;;;;5097339;28;20229;-61
2022/08/21 06:22:57;;;;;;;2.97;1.30;;;;;;;;;;5099628;28;20619;-61
2022/08/21 06:25:25;;;;;;;3.13;0.80;;;;;;;;;;5117555;28;20637;-61
2022/08/21 06:28:00;;;;;;;4.97;1.23;;;;;;;;;;5117577;28;20239;-61
2022/08/21 06:30:28;;;;;;;3.00;1.27;;;;;;;;;;5118538;28;20567;-61
2022/08/21 06:32:57;;;;;;;2.37;1.23;;;;;;;;;;5128239;27;20653;-61
2022/08/21 06:35:25;;;;;;;2.67;1.13;;;;;;;;;;5128318;27;20561;-60
2022/08/21 06:37:53;;;;;;;3.97;1.30;;;;;;;;;;5130236;27;20201;-61
2022/08/21 06:40:21;;;;;;;5.07;1.40;;;;;;;;;;5121967;27;20252;-61
2022/08/21 06:42:49;;;;;;;2.27;1.37;;;;;;;;;;5124623;27;20200;-61
2022/08/21 06:45:19;;;;;;;4.70;1.23;;;;;;;;;;5117928;27;20207;-61
2022/08/21 06:47:47;;;;;;;3.67;1.40;;;;;;;;;;5127662;27;20271;-61
2022/08/21 06:50:15;;;;;;;3.00;1.30;;;;;;;;;;5114380;28;20263;-60
2022/08/21 06:52:43;;;;;;;5.00;1.17;;;;;;;;;;5122756;27;20706;-62
2022/08/21 06:55:11;;;;;;;3.73;1.20;;;;;;;;;;5131251;27;20233;-61
2022/08/21 06:57:47;;;;;;;2.10;1.10;;;;;;;;;;5128257;27;20738;-60
2022/08/21 07:00:21;;;;;;;4.50;1.23;;;;;;;;;;5119179;27;20312;-60
2022/08/21 07:02:49;;;;;;;3.70;1.33;;;;;;;;;;5112261;28;20207;-62
2022/08/21 07:05:17;;;;;;;4.73;1.60;;;;;;;;;;5117203;27;20246;-61
2022/08/21 07:07:46;;;;;;;1.90;1.30;;;;;;;;;;5107016;27;20210;-60
2022/08/21 07:10:14;;;;;;;1.47;0.80;;;;;;;;;;5120254;28;20201;-60
2022/08/21 07:12:50;;;;;;;5.00;1.50;;;;;;;;;;5119657;28;20234;-62
2022/08/21 07:15:29;;;;;;;3.03;1.17;;;;;;;;;;5116554;28;22102;-62
2022/08/21 07:17:58;;;;;;;3.00;1.47;;;;;;;;;;5108169;28;20622;-62
2022/08/21 07:20:26;;;;;;;1.90;1.00;;;;;;;;;;5103350;28;20281;-61
2022/08/21 07:22:55;;;;;;;1.97;1.70;;;;;;;;;;5119623;28;20634;-61
2022/08/21 07:25:23;;;;;;;1.80;0.97;;;;;;;;;;5109950;27;20196;-62
2022/08/21 07:27:51;;;;;;;4.70;1.50;;;;;;;;;;5128588;27;20234;-62
2022/08/21 07:30:20;;;;;;;2.27;1.40;;;;;;;;;;5129371;27;20233;-61
2022/08/21 07:32:50;;;;;;;6.37;1.50;;;;;;;;;;5129689;27;20236;-62
2022/08/21 07:35:18;;;;;;;1.40;1.10;;;;;;;;;;5127820;27;20224;-62
2022/08/21 07:37:46;;;;;;;3.63;1.20;;;;;;;;;;5110419;27;20663;-63
2022/08/21 07:40:15;;;;;;;1.80;1.10;;;;;;;;;;5117697;27;20274;-63
2022/08/21 07:42:44;;;;;;;6.33;1.73;;;;;;;;;;5128211;27;20203;-63
2022/08/21 07:45:12;;;;;;;2.80;1.30;;;;;;;;;;5126182;27;20258;-62
2022/08/21 07:47:40;;;;;;;3.53;1.13;;;;;;;;;;5123289;27;20230;-62
2022/08/21 07:50:12;;;;;;;3.07;1.00;;;;;;;;;;5124418;27;20212;-63
2022/08/21 07:52:40;;;;;;;2.13;1.23;;;;;;;;;;5123572;27;20263;-63
2022/08/21 07:55:08;;;;;;;3.70;1.77;;;;;;;;;;5123875;27;20282;-63
2022/08/21 07:57:36;;;;;;;2.53;1.10;;;;;;;;;;5121449;27;20243;-63
2022/08/21 08:00:05;;;;;;;5.23;1.23;;;;;;;;;;5124416;27;20257;-62
2022/08/21 08:02:33;;;;;;;2.80;1.20;;;;;;;;;;5106498;27;20240;-62
2022/08/21 08:05:01;;;;;;;2.47;1.17;;;;;;;;;;5103681;28;20217;-62
2022/08/21 08:07:31;;;;;;;2.27;1.10;;;;;;;;;;5117491;28;20838;-62
2022/08/21 08:09:59;;;;;;;2.87;2.17;;;;;;;;;;5103630;28;20237;-62
2022/08/21 08:12:29;;;;;;;3.70;1.27;;;;;;;;;;5121063;27;20199;-62
2022/08/21 08:14:57;;;;;;;2.53;1.00;;;;;;;;;;5128579;27;20215;-62
2022/08/21 08:17:26;;;;;;;1.30;1.10;;;;;;;;;;5124575;27;20262;-62
2022/08/21 08:19:55;;;;;;;2.90;1.10;;;;;;;;;;5129514;27;20231;-62
2022/08/21 08:22:24;;;;;;;3.43;1.50;;;;;;;;;;5129032;27;20664;-61
2022/08/21 08:24:54;;;;;;;2.63;1.17;;;;;;;;;;5120498;27;20259;-62
2022/08/21 08:27:22;;;;;;;2.37;1.20;;;;;;;;;;5118820;28;20201;-62
2022/08/21 08:29:50;;;;;;;4.23;1.00;;;;;;;;;;5113728;28;20238;-62
2022/08/21 08:32:18;;;;;;;1.53;1.17;;;;;;;;;;5119127;28;20206;-62
2022/08/21 08:34:46;;;;;;;4.30;1.50;;;;;;;;;;5118563;28;20226;-62
2022/08/21 08:37:14;;;;;;;2.27;1.47;;;;;;;;;;5118664;28;20254;-62
2022/08/21 08:39:42;;;;;;;2.07;1.00;;;;;;;;;;5113291;28;20284;-61
2022/08/21 08:42:13;;;;;;;5.43;1.37;;;;;;;;;;5117955;28;20221;-61
2022/08/21 08:45:02;;;;;;;2.33;1.27;;;;;;;;;;5115305;28;20312;-62
2022/08/21 08:47:32;;;;;;;2.83;1.17;;;;;;;;;;5115331;28;20243;-62
2022/08/21 08:50:03;;;;;;;1.73;0.80;;;;;;;;;;5115186;28;20561;-62
2022/08/21 08:52:33;;;;;;;6.57;1.30;;;;;;;;;;5117965;28;20244;-62
2022/08/21 08:55:03;;;;;;;1.50;1.13;;;;;;;;;;5118365;27;20227;-62
2022/08/21 08:57:33;;;;;;;1.83;1.10;;;;;;;;;;5110858;28;20585;-62
2022/08/21 09:00:02;;;;;;;4.43;1.30;;;;;;;;;;5117151;28;20206;-62
2022/08/21 09:02:30;;;;;;;2.53;1.10;;;;;;;;;;5113308;28;20223;-61
2022/08/21 09:05:00;;;;;;;3.37;1.30;;;;;;;;;;5118182;28;20239;-62
2022/08/21 09:07:33;;;;;;;2.87;1.27;;;;;;;;;;5123299;27;20248;-62
2022/08/21 09:10:07;;;;;;;3.33;1.20;;;;;;;;;;5126763;27;20200;-63
2022/08/21 09:12:40;;;;;;;3.03;1.30;;;;;;;;;;5120233;27;20192;-62
2022/08/21 09:15:13;;;;;;;2.27;1.40;;;;;;;;;;5119612;27;20246;-62
2022/08/21 09:17:48;;;;;;;4.50;2.10;;;;;;;;;;5109387;28;20200;-63
2022/08/21 09:20:20;;;;;;;3.60;1.47;;;;;;;;;;5105455;28;20674;-63
2022/08/21 09:22:55;;;;;;;3.23;1.20;;;;;;;;;;5112302;28;20227;-63
2022/08/21 09:25:26;;;;;;;3.23;1.20;;;;;;;;;;5117309;28;20206;-64
2022/08/21 09:27:55;;;;;;;1.40;0.97;;;;;;;;;;5125578;28;20224;-63
2022/08/21 09:30:26;;;;;;;2.80;1.50;;;;;;;;;;5122067;28;20633;-62
2022/08/21 09:32:54;;;;;;;4.53;1.00;;;;;;;;;;5123115;28;20745;-64
2022/08/21 09:35:23;;;;;;;6.33;1.27;;;;;;;;;;5105726;27;20235;-64
2022/08/21 09:37:52;;;;;;;2.53;1.40;;;;;;;;;;5113467;28;20241;-63
2022/08/21 09:40:33;;;;;;;4.53;1.30;;;;;;;;;;5114087;28;20644;-61
2022/08/21 09:43:04;;;;;;;5.17;1.57;;;;;;;;;;5112497;28;20193;-62
2022/08/21 09:45:33;;;;;;;2.30;1.20;;;;;;;;;;5098053;28;20263;-62
2022/08/21 09:48:15;;;;;;;1.40;0.90;;;;;;;;;;5099469;28;20230;-64
2022/08/21 09:50:43;;;;;;;4.50;1.47;;;;;;;;;;5098391;28;20241;-64
2022/08/21 09:53:17;;;;;;;3.57;1.20;;;;;;;;;;5109472;28;20766;-63
2022/08/21 09:58:37;;;;;;;1.33;1.00;;;;;;;;;;5097855;28;20595;-61
2022/08/21 10:01:06;;;;;;;2.57;1.00;;;;;;;;;;5105809;28;20256;-61
2022/08/21 10:03:34;;;;;;;2.13;1.13;;;;;;;;;;5114679;28;20592;-63
2022/08/21 10:06:05;;;;;;;5.03;1.40;;;;;;;;;;5123931;27;20252;-64
2022/08/21 10:08:37;;;;;;;3.50;1.50;;;;;;;;;;5122404;27;20235;-63
2022/08/21 10:11:06;;;;;;;6.37;1.30;;;;;;;;;;5131349;27;20245;-63
2022/08/21 10:13:42;;;;;;;1.80;0.80;;;;;;;;;;5131217;27;20256;-62
2022/08/21 10:16:15;;;;;;;3.13;1.10;;;;;;;;;;5129328;27;20651;-62
2022/08/21 10:18:47;;;;;;;2.33;1.10;;;;;;;;;;5128514;27;20282;-62
2022/08/21 10:21:18;;;;;;;3.10;1.40;;;;;;;;;;5127716;27;20229;-62
2022/08/21 10:23:52;;;;;;;2.57;1.13;;;;;;;;;;5122986;27;20217;-61
2022/08/21 10:26:26;;;;;;;4.83;1.10;;;;;;;;;;5124069;27;20249;-62
2022/08/21 10:29:02;;;;;;;2.80;1.27;;;;;;;;;;5119676;28;20211;-62
2022/08/21 10:31:34;;;;;;;1.30;1.20;;;;;;;;;;5114754;28;20228;-61
2022/08/21 10:34:08;;;;;;;2.23;1.17;;;;;;;;;;5117401;27;20251;-62
2022/08/21 10:36:40;;;;;;;3.60;1.10;;;;;;;;;;5117076;28;20208;-62
2022/08/21 10:39:14;;;;;;;2.63;1.23;;;;;;;;;;5125327;27;20231;-62
2022/08/21 10:42:18;;;;;;;2.90;1.77;;;;;;;;;;5130232;27;20306;-62
2022/08/21 10:44:53;;;;;;;2.83;0.90;;;;;;;;;;5116102;27;20274;-62
2022/08/21 10:47:26;;;;;;;5.23;1.07;;;;;;;;;;5118790;27;20198;-62
2022/08/21 10:49:59;;;;;;;3.13;1.30;;;;;;;;;;5117421;27;20205;-62
2022/08/21 10:52:37;;;;;;;3.97;1.67;;;;;;;;;;5117428;27;20266;-63
2022/08/21 10:55:13;;;;;;;2.97;1.27;;;;;;;;;;5117905;27;20299;-63
2022/08/21 10:57:43;;;;;;;3.03;1.63;;;;;;;;;;5119018;28;20270;-63
2022/08/21 11:00:14;;;;;;;2.78;1.30;;;;;;;;;;5118540;28;20235;-63
2022/08/21 11:02:45;;;;;;;2.73;1.17;;;;;;;;;;5120410;27;20224;-63
2022/08/21 11:05:16;;;;;;;3.70;1.53;;;;;;;;;;5120300;28;20257;-64
2022/08/21 11:07:46;;;;;;;1.43;1.00;;;;;;;;;;5120364;27;20251;-64
2022/08/21 11:10:19;;;;;;;3.20;1.20;;;;;;;;;;5114477;27;20731;-63
2022/08/21 11:12:49;;;;;;;1.40;1.30;;;;;;;;;;5105736;28;20660;-63
2022/08/21 11:15:26;;;;;;;2.50;1.10;;;;;;;;;;5110988;28;20204;-63
2022/08/21 11:18:01;;;;;;;3.40;0.90;;;;;;;;;;5107276;28;20204;-62
2022/08/21 11:20:31;;;;;;;3.63;0.97;;;;;;;;;;5123251;27;20204;-62
2022/08/21 11:23:02;;;;;;;2.67;1.40;;;;;;;;;;5128553;27;20231;-62
2022/08/21 11:25:33;;;;;;;2.13;1.03;;;;;;;;;;5127945;27;20234;-62
2022/08/21 11:28:06;;;;;;;1.90;1.10;;;;;;;;;;5111090;27;20212;-62
2022/08/21 11:30:47;;;;;;;2.70;1.10;;;;;;;;;;5119927;27;20285;-62
2022/08/21 11:33:24;;;;;;;2.40;1.30;;;;;;;;;;5124303;27;20211;-60
2022/08/21 11:35:54;;;;;;;2.50;1.50;;;;;;;;;;5125493;27;20226;-62
2022/08/21 11:38:27;;;;;;;2.57;0.77;;;;;;;;;;5122374;27;20635;-62
2022/08/21 11:41:12;;;;;;;3.17;1.03;;;;;;;;;;5110220;27;20263;-60
2022/08/21 11:43:42;;;;;;;1.53;1.10;;;;;;;;;;5113165;27;20229;-62
2022/08/21 11:46:20;;;;;;;1.90;1.50;;;;;;;;;;5106065;28;20320;-62
2022/08/21 11:48:53;;;;;;;5.13;1.17;;;;;;;;;;5119712;27;20256;-63
2022/08/21 11:51:28;;;;;;;2.27;1.10;;;;;;;;;;5114753;28;20273;-62
2022/08/21 11:54:01;;;;;;;1.73;1.10;;;;;;;;;;5107832;27;20282;-62
2022/08/21 11:56:36;;;;;;;1.43;1.10;;;;;;;;;;5117811;27;20251;-62
2022/08/21 11:59:07;;;;;;;3.07;1.20;;;;;;;;;;5116788;28;20225;-62
2022/08/21 12:01:39;;;;;;;1.20;1.10;;;;;;;;;;5119308;28;20618;-63
2022/08/21 12:04:10;;;;;;;1.47;1.00;;;;;;;;;;5118983;28;20266;-63
2022/08/21 12:06:40;;;;;;;1.50;1.00;;;;;;;;;;5119229;28;20241;-62
2022/08/21 12:09:09;;;;;;;2.10;0.97;;;;;;;;;;5113335;28;20609;-63
2022/08/21 12:11:47;;;;;;;2.50;1.30;;;;;;;;;;5112918;28;20238;-63
2022/08/21 12:14:17;;;;;;;2.97;1.33;;;;;;;;;;5112167;28;20632;-63
2022/08/21 12:16:47;;;;;;;2.43;1.37;;;;;;;;;;5114367;28;20214;-63
2022/08/21 12:19:28;;;;;;;2.10;1.30;;;;;;;;;;5119230;28;20222;-62
2022/08/21 12:22:00;;;;;;;2.07;1.10;;;;;;;;;;5118955;28;20219;-62
2022/08/21 12:24:33;;;;;;;2.30;1.20;;;;;;;;;;5107869;28;20225;-63
2022/08/21 12:27:13;;;;;;;3.20;1.70;;;;;;;;;;5118505;28;20635;-63
2022/08/21 12:29:46;;;;;;;2.83;1.13;;;;;;;;;;5114395;28;20234;-62
2022/08/21 12:32:24;;;;;;;3.30;1.27;;;;;;;;;;5118761;28;20574;-62
2022/08/21 12:34:54;;;;;;;2.57;1.20;;;;;;;;;;5118861;28;20229;-62
2022/08/21 12:37:25;;;;;;;1.70;1.20;;;;;;;;;;5118624;28;20727;-62
2022/08/21 12:39:55;;;;;;;2.10;1.07;;;;;;;;;;5111933;28;20211;-62
2022/08/21 12:42:24;;;;;;;2.40;1.33;;;;;;;;;;5111910;27;20214;-62
2022/08/21 12:44:54;;;;;;;5.17;1.40;;;;;;;;;;5103786;28;20279;-62
2022/08/21 12:47:26;;;;;;;3.80;1.33;;;;;;;;;;5109273;28;20209;-62
2022/08/21 12:49:57;;;;;;;2.63;1.20;;;;;;;;;;5118239;28;20238;-62
2022/08/21 12:52:30;;;;;;;4.87;1.63;;;;;;;;;;5118010;28;20234;-62
2022/08/21 12:55:04;;;;;;;2.50;1.27;;;;;;;;;;5113955;28;20298;-62
2022/08/21 12:57:32;;;;;;;3.33;1.53;;;;;;;;;;5115433;27;20206;-62
2022/08/21 13:00:02;;;;;;;1.40;1.20;;;;;;;;;;5110636;28;20214;-62
2022/08/21 13:02:32;;;;;;;3.30;1.40;;;;;;;;;;5110373;28;20205;-62
2022/08/21 13:05:02;;;;;;;2.00;1.50;;;;;;;;;;5103358;28;20230;-63
2022/08/21 13:07:32;;;;;;;1.63;1.30;;;;;;;;;;5116257;28;20218;-62
2022/08/21 13:10:02;;;;;;;3.60;1.57;;;;;;;;;;5118284;28;20257;-62
2022/08/21 13:12:31;;;;;;;3.93;1.70;;;;;;;;;;5110811;28;20254;-62
2022/08/21 13:15:01;;;;;;;3.97;1.77;;;;;;;;;;5117922;28;20232;-62
2022/08/21 13:17:32;;;;;;;6.00;1.67;;;;;;;;;;5105147;28;20201;-62
2022/08/21 13:20:01;;;;;;;2.30;1.40;;;;;;;;;;5113948;28;20287;-62
2022/08/21 13:22:30;;;;;;;4.80;2.13;;;;;;;;;;5117825;28;20547;-62
2022/08/21 13:25:02;;;;;;;3.60;1.43;;;;;;;;;;5113545;28;20221;-62
2022/08/21 13:27:34;;;;;;;2.83;2.33;;;;;;;;;;5110682;28;20217;-62
2022/08/21 13:30:05;;;;;;;3.47;1.80;;;;;;;;;;5117823;28;20243;-62
2022/08/21 13:32:37;;;;;;;4.50;2.30;;;;;;;;;;5113289;28;20213;-62
2022/08/21 13:35:09;;;;;;;3.57;1.73;;;;;;;;;;5110999;28;20232;-62
2022/08/21 13:37:39;;;;;;;2.63;1.80;;;;;;;;;;5115256;28;20212;-62
2022/08/21 13:40:08;;;;;;;3.97;1.83;;;;;;;;;;5115166;28;20678;-62
2022/08/21 13:42:38;;;;;;;2.63;1.87;;;;;;;;;;5119716;28;20212;-62
2022/08/21 13:45:12;;;;;;;3.60;1.60;;;;;;;;;;5114163;28;20580;-62
2022/08/21 13:47:41;;;;;;;5.80;2.10;;;;;;;;;;5127541;27;20225;-63
2022/08/21 13:50:13;;;;;;;3.73;1.60;;;;;;;;;;5127389;27;20196;-64
2022/08/21 13:52:48;;;;;;;2.43;1.73;;;;;;;;;;5132730;27;20214;-63
2022/08/21 13:55:17;;;;;;;3.00;1.67;;;;;;;;;;5130914;27;20711;-63
2022/08/21 13:57:45;;;;;;;3.83;2.00;;;;;;;;;;5131851;27;20641;-63
2022/08/21 14:00:15;;;;;;;6.10;2.17;;;;;;;;;;5126111;27;20583;-63
2022/08/21 14:02:45;;;;;;;2.30;1.77;;;;;;;;;;5121795;27;20742;-63
2022/08/21 14:05:17;;;;;;;3.10;1.80;;;;;;;;;;5121800;28;20226;-63
2022/08/21 14:07:45;;;;;;;3.53;1.90;;;;;;;;;;5121995;28;20211;-63
2022/08/21 14:10:15;;;;;;;2.63;1.97;;;;;;;;;;5121636;28;20266;-63
2022/08/21 14:12:44;;;;;;;4.17;2.17;;;;;;;;;;5121307;28;20203;-63
2022/08/21 14:15:14;;;;;;;4.77;2.00;;;;;;;;;;5101778;28;20248;-63
2022/08/21 14:17:42;;;;;;;3.37;1.70;;;;;;;;;;5113670;27;20223;-63
2022/08/21 14:20:14;;;;;;;6.03;3.23;;;;;;;;;;5111908;27;20199;-64
2022/08/21 14:22:45;;;;;;;4.57;2.00;;;;;;;;;;5119772;27;20196;-63
2022/08/21 14:25:15;;;;;;;4.10;2.83;;;;;;;;;;5125184;27;20606;-63
2022/08/21 14:27:44;;;;;;;5.03;2.13;;;;;;;;;;5130288;27;20200;-63
2022/08/21 14:30:13;;;;;;;2.67;1.90;;;;;;;;;;5112704;28;20204;-63
2022/08/21 14:32:42;;;;;;;5.03;2.33;;;;;;;;;;5114899;28;20227;-64
2022/08/21 14:35:20;;;;;;;2.73;1.50;;;;;;;;;;5114884;28;20280;-64
2022/08/21 14:37:51;;;;;;;2.67;1.70;;;;;;;;;;5115759;28;20682;-63
2022/08/21 14:40:20;;;;;;;5.00;1.80;;;;;;;;;;5113477;28;20235;-64
2022/08/21 14:42:49;;;;;;;3.33;2.20;;;;;;;;;;5114214;27;20205;-64
2022/08/21 14:45:18;;;;;;;3.00;1.73;;;;;;;;;;5100205;28;20282;-64
2022/08/21 14:47:54;;;;;;;3.63;2.33;;;;;;;;;;5125705;27;21241;-64
2022/08/21 14:50:23;;;;;;;5.37;2.30;;;;;;;;;;5124165;27;20232;-64
2022/08/21 14:52:55;;;;;;;4.00;2.50;;;;;;;;;;5129968;27;20197;-63
2022/08/21 14:55:23;;;;;;;5.47;2.43;;;;;;;;;;5128919;27;20192;-64
2022/08/21 14:57:52;;;;;;;2.97;2.20;;;;;;;;;;5117514;27;20285;-62
2022/08/21 15:00:22;;;;;;;4.37;2.27;;;;;;;;;;5108118;28;20241;-62
2022/08/21 15:02:53;;;;;;;5.50;2.43;;;;;;;;;;5121158;27;20202;-62
2022/08/21 15:05:21;;;;;;;5.60;2.17;;;;;;;;;;5120662;28;20228;-62